sensor_id;sensor_type;location;lat;lon;timestamp;P1;durP1;ratioP1;P2;durP2;ratioP2
82727;SDS011;72459;50.110;8.750;2024-03-08T00:01:47;17.35;;;8.95;;
82727;SDS011;72459;50.110;8.750;2024-03-08T00:04:12;15.43;;;8.48;;
82727;SDS011;72459;50.110;8.750;2024-03-08T00:06:38;18.35;;;8.80;;
82727;SDS011;72459;50.110;8.750;2024-03-08T00:09:04;15.73;;;8.50;;
82727;SDS011;72459;50.110;8.750;2024-03-08T00:13:58;14.95;;;8.05;;
82727;SDS011;72459;50.110;8.750;2024-03-08T00:16:23;15.33;;;8.10;;
82727;SDS011;72459;50.110;8.750;2024-03-08T00:18:49;17.30;;;8.68;;
82727;SDS011;72459;50.110;8.750;2024-03-08T00:21:14;16.95;;;8.93;;
82727;SDS011;72459;50.110;8.750;2024-03-08T00:23:40;16.35;;;8.93;;
82727;SDS011;72459;50.110;8.750;2024-03-08T00:26:05;16.77;;;9.23;;
82727;SDS011;72459;50.110;8.750;2024-03-08T00:28:31;16.92;;;9.05;;
82727;SDS011;72459;50.110;8.750;2024-03-08T00:30:56;17.10;;;8.95;;
82727;SDS011;72459;50.110;8.750;2024-03-08T00:33:22;16.83;;;8.63;;
82727;SDS011;72459;50.110;8.750;2024-03-08T00:35:47;17.75;;;9.80;;
82727;SDS011;72459;50.110;8.750;2024-03-08T00:38:13;17.45;;;8.85;;
82727;SDS011;72459;50.110;8.750;2024-03-08T00:40:39;19.88;;;9.55;;
82727;SDS011;72459;50.110;8.750;2024-03-08T00:43:05;16.80;;;8.63;;
82727;SDS011;72459;50.110;8.750;2024-03-08T00:45:31;14.27;;;8.43;;
82727;SDS011;72459;50.110;8.750;2024-03-08T00:47:58;16.77;;;8.55;;
82727;SDS011;72459;50.110;8.750;2024-03-08T00:50:23;17.42;;;8.68;;
82727;SDS011;72459;50.110;8.750;2024-03-08T00:52:48;18.10;;;8.60;;
82727;SDS011;72459;50.110;8.750;2024-03-08T00:55:14;17.63;;;8.88;;
82727;SDS011;72459;50.110;8.750;2024-03-08T00:57:40;17.55;;;8.65;;
82727;SDS011;72459;50.110;8.750;2024-03-08T01:00:06;17.65;;;8.63;;
82727;SDS011;72459;50.110;8.750;2024-03-08T01:02:35;16.75;;;9.18;;
82727;SDS011;72459;50.110;8.750;2024-03-08T01:05:01;17.35;;;8.18;;
82727;SDS011;72459;50.110;8.750;2024-03-08T01:07:27;17.63;;;9.00;;
82727;SDS011;72459;50.110;8.750;2024-03-08T01:09:52;16.63;;;8.02;;
82727;SDS011;72459;50.110;8.750;2024-03-08T01:12:17;18.23;;;10.02;;
82727;SDS011;72459;50.110;8.750;2024-03-08T01:14:44;15.77;;;8.55;;
82727;SDS011;72459;50.110;8.750;2024-03-08T01:17:09;16.95;;;8.80;;
82727;SDS011;72459;50.110;8.750;2024-03-08T01:19:35;19.23;;;8.80;;
82727;SDS011;72459;50.110;8.750;2024-03-08T01:22:00;14.73;;;7.82;;
82727;SDS011;72459;50.110;8.750;2024-03-08T01:24:27;18.10;;;9.57;;
82727;SDS011;72459;50.110;8.750;2024-03-08T01:26:52;18.35;;;9.07;;
82727;SDS011;72459;50.110;8.750;2024-03-08T01:29:17;21.07;;;10.10;;
82727;SDS011;72459;50.110;8.750;2024-03-08T01:31:43;18.40;;;8.57;;
82727;SDS011;72459;50.110;8.750;2024-03-08T01:34:08;17.30;;;9.00;;
82727;SDS011;72459;50.110;8.750;2024-03-08T01:36:35;16.92;;;8.70;;
82727;SDS011;72459;50.110;8.750;2024-03-08T01:39:02;16.13;;;9.60;;
82727;SDS011;72459;50.110;8.750;2024-03-08T01:41:32;17.23;;;8.23;;
82727;SDS011;72459;50.110;8.750;2024-03-08T01:43:58;17.30;;;7.28;;
82727;SDS011;72459;50.110;8.750;2024-03-08T01:46:24;15.45;;;8.05;;
82727;SDS011;72459;50.110;8.750;2024-03-08T01:48:49;17.58;;;9.13;;
82727;SDS011;72459;50.110;8.750;2024-03-08T01:51:18;15.13;;;7.88;;
82727;SDS011;72459;50.110;8.750;2024-03-08T01:53:44;16.23;;;8.10;;
82727;SDS011;72459;50.110;8.750;2024-03-08T01:56:11;16.75;;;8.63;;
82727;SDS011;72459;50.110;8.750;2024-03-08T01:58:37;16.75;;;8.77;;
82727;SDS011;72459;50.110;8.750;2024-03-08T02:01:04;18.50;;;8.82;;
82727;SDS011;72459;50.110;8.750;2024-03-08T02:03:30;19.95;;;9.48;;
82727;SDS011;72459;50.110;8.750;2024-03-08T02:05:56;17.63;;;9.02;;
82727;SDS011;72459;50.110;8.750;2024-03-08T02:08:24;18.70;;;8.95;;
82727;SDS011;72459;50.110;8.750;2024-03-08T02:10:50;19.50;;;9.23;;
82727;SDS011;72459;50.110;8.750;2024-03-08T02:13:15;16.33;;;8.60;;
82727;SDS011;72459;50.110;8.750;2024-03-08T02:15:57;16.70;;;8.65;;
82727;SDS011;72459;50.110;8.750;2024-03-08T02:18:24;17.17;;;9.32;;
82727;SDS011;72459;50.110;8.750;2024-03-08T02:23:24;18.52;;;9.43;;
82727;SDS011;72459;50.110;8.750;2024-03-08T02:25:51;18.90;;;9.07;;
82727;SDS011;72459;50.110;8.750;2024-03-08T02:28:18;20.65;;;9.40;;
82727;SDS011;72459;50.110;8.750;2024-03-08T02:30:46;18.58;;;9.55;;
82727;SDS011;72459;50.110;8.750;2024-03-08T02:33:15;19.88;;;10.05;;
82727;SDS011;72459;50.110;8.750;2024-03-08T02:35:44;19.83;;;9.05;;
82727;SDS011;72459;50.110;8.750;2024-03-08T02:38:12;17.02;;;9.88;;
82727;SDS011;72459;50.110;8.750;2024-03-08T02:40:38;18.52;;;9.77;;
82727;SDS011;72459;50.110;8.750;2024-03-08T02:43:03;21.20;;;9.68;;
82727;SDS011;72459;50.110;8.750;2024-03-08T02:45:30;18.30;;;9.43;;
82727;SDS011;72459;50.110;8.750;2024-03-08T02:47:55;21.20;;;10.38;;
82727;SDS011;72459;50.110;8.750;2024-03-08T02:50:21;18.88;;;9.27;;
82727;SDS011;72459;50.110;8.750;2024-03-08T02:52:47;19.80;;;9.88;;
82727;SDS011;72459;50.110;8.750;2024-03-08T02:55:13;21.05;;;10.60;;
82727;SDS011;72459;50.110;8.750;2024-03-08T03:00:06;19.73;;;9.52;;
82727;SDS011;72459;50.110;8.750;2024-03-08T03:02:37;18.02;;;9.32;;
82727;SDS011;72459;50.110;8.750;2024-03-08T03:05:03;18.07;;;9.53;;
82727;SDS011;72459;50.110;8.750;2024-03-08T03:07:32;21.13;;;10.35;;
82727;SDS011;72459;50.110;8.750;2024-03-08T03:10:01;20.23;;;9.65;;
82727;SDS011;72459;50.110;8.750;2024-03-08T03:12:27;19.98;;;10.00;;
82727;SDS011;72459;50.110;8.750;2024-03-08T03:14:53;20.08;;;10.60;;
82727;SDS011;72459;50.110;8.750;2024-03-08T03:17:19;23.02;;;10.38;;
82727;SDS011;72459;50.110;8.750;2024-03-08T03:19:45;21.00;;;10.70;;
82727;SDS011;72459;50.110;8.750;2024-03-08T03:22:11;20.02;;;9.93;;
82727;SDS011;72459;50.110;8.750;2024-03-08T03:24:37;23.65;;;10.77;;
82727;SDS011;72459;50.110;8.750;2024-03-08T03:27:04;21.58;;;11.18;;
82727;SDS011;72459;50.110;8.750;2024-03-08T03:29:35;20.48;;;10.07;;
82727;SDS011;72459;50.110;8.750;2024-03-08T03:32:01;19.73;;;10.00;;
82727;SDS011;72459;50.110;8.750;2024-03-08T03:34:28;23.42;;;10.40;;
82727;SDS011;72459;50.110;8.750;2024-03-08T03:36:54;18.53;;;9.17;;
82727;SDS011;72459;50.110;8.750;2024-03-08T03:39:20;19.85;;;10.55;;
82727;SDS011;72459;50.110;8.750;2024-03-08T03:41:47;20.85;;;10.13;;
82727;SDS011;72459;50.110;8.750;2024-03-08T03:44:17;21.80;;;10.27;;
82727;SDS011;72459;50.110;8.750;2024-03-08T03:46:43;19.95;;;9.35;;
82727;SDS011;72459;50.110;8.750;2024-03-08T03:49:11;22.10;;;10.55;;
82727;SDS011;72459;50.110;8.750;2024-03-08T03:51:37;22.13;;;10.35;;
82727;SDS011;72459;50.110;8.750;2024-03-08T03:54:02;22.20;;;10.77;;
82727;SDS011;72459;50.110;8.750;2024-03-08T03:56:28;22.38;;;10.40;;
82727;SDS011;72459;50.110;8.750;2024-03-08T03:58:55;23.02;;;10.85;;
82727;SDS011;72459;50.110;8.750;2024-03-08T04:01:22;21.63;;;10.23;;
82727;SDS011;72459;50.110;8.750;2024-03-08T04:03:47;22.13;;;10.65;;
82727;SDS011;72459;50.110;8.750;2024-03-08T04:06:12;19.17;;;10.32;;
82727;SDS011;72459;50.110;8.750;2024-03-08T04:08:39;22.77;;;10.50;;
82727;SDS011;72459;50.110;8.750;2024-03-08T04:11:04;21.52;;;11.02;;
82727;SDS011;72459;50.110;8.750;2024-03-08T04:13:30;22.17;;;9.82;;
82727;SDS011;72459;50.110;8.750;2024-03-08T04:15:55;19.45;;;9.75;;
82727;SDS011;72459;50.110;8.750;2024-03-08T04:18:20;20.57;;;10.57;;
82727;SDS011;72459;50.110;8.750;2024-03-08T04:20:46;21.33;;;9.53;;
82727;SDS011;72459;50.110;8.750;2024-03-08T04:23:11;24.33;;;11.77;;
82727;SDS011;72459;50.110;8.750;2024-03-08T04:25:36;22.30;;;10.13;;
82727;SDS011;72459;50.110;8.750;2024-03-08T04:28:02;20.48;;;10.35;;
82727;SDS011;72459;50.110;8.750;2024-03-08T04:30:29;22.73;;;11.00;;
82727;SDS011;72459;50.110;8.750;2024-03-08T04:32:55;23.27;;;10.15;;
82727;SDS011;72459;50.110;8.750;2024-03-08T04:35:20;21.67;;;11.18;;
82727;SDS011;72459;50.110;8.750;2024-03-08T04:37:46;24.10;;;11.33;;
82727;SDS011;72459;50.110;8.750;2024-03-08T04:40:11;22.90;;;10.82;;
82727;SDS011;72459;50.110;8.750;2024-03-08T04:42:37;22.95;;;10.73;;
82727;SDS011;72459;50.110;8.750;2024-03-08T04:45:04;21.13;;;10.43;;
82727;SDS011;72459;50.110;8.750;2024-03-08T04:47:29;21.10;;;10.85;;
82727;SDS011;72459;50.110;8.750;2024-03-08T04:49:55;22.75;;;10.63;;
82727;SDS011;72459;50.110;8.750;2024-03-08T04:52:22;23.08;;;10.82;;
82727;SDS011;72459;50.110;8.750;2024-03-08T04:54:47;21.33;;;10.50;;
82727;SDS011;72459;50.110;8.750;2024-03-08T04:57:13;25.13;;;11.32;;
82727;SDS011;72459;50.110;8.750;2024-03-08T04:59:38;21.50;;;10.95;;
82727;SDS011;72459;50.110;8.750;2024-03-08T05:02:04;23.20;;;11.85;;
82727;SDS011;72459;50.110;8.750;2024-03-08T05:04:32;24.98;;;12.02;;
82727;SDS011;72459;50.110;8.750;2024-03-08T05:06:57;24.08;;;12.38;;
82727;SDS011;72459;50.110;8.750;2024-03-08T05:09:26;24.15;;;11.73;;
82727;SDS011;72459;50.110;8.750;2024-03-08T05:11:54;23.52;;;11.85;;
82727;SDS011;72459;50.110;8.750;2024-03-08T05:14:19;26.17;;;12.90;;
82727;SDS011;72459;50.110;8.750;2024-03-08T05:16:46;20.17;;;10.48;;
82727;SDS011;72459;50.110;8.750;2024-03-08T05:19:15;22.67;;;10.98;;
82727;SDS011;72459;50.110;8.750;2024-03-08T05:21:44;20.90;;;10.68;;
82727;SDS011;72459;50.110;8.750;2024-03-08T05:24:14;20.80;;;10.68;;
82727;SDS011;72459;50.110;8.750;2024-03-08T05:26:40;25.90;;;11.63;;
82727;SDS011;72459;50.110;8.750;2024-03-08T05:29:07;23.73;;;10.77;;
82727;SDS011;72459;50.110;8.750;2024-03-08T05:31:49;27.65;;;12.05;;
82727;SDS011;72459;50.110;8.750;2024-03-08T05:34:17;25.23;;;10.63;;
82727;SDS011;72459;50.110;8.750;2024-03-08T05:36:44;23.17;;;10.25;;
82727;SDS011;72459;50.110;8.750;2024-03-08T05:39:11;21.48;;;9.63;;
82727;SDS011;72459;50.110;8.750;2024-03-08T05:41:40;23.55;;;11.57;;
82727;SDS011;72459;50.110;8.750;2024-03-08T05:44:06;21.25;;;10.93;;
82727;SDS011;72459;50.110;8.750;2024-03-08T05:46:32;24.65;;;10.80;;
82727;SDS011;72459;50.110;8.750;2024-03-08T05:48:58;24.98;;;10.93;;
82727;SDS011;72459;50.110;8.750;2024-03-08T05:51:24;23.95;;;11.10;;
82727;SDS011;72459;50.110;8.750;2024-03-08T05:56:18;20.98;;;9.68;;
82727;SDS011;72459;50.110;8.750;2024-03-08T05:58:43;28.30;;;11.57;;
82727;SDS011;72459;50.110;8.750;2024-03-08T06:01:09;21.98;;;9.98;;
82727;SDS011;72459;50.110;8.750;2024-03-08T06:03:37;21.48;;;10.77;;
82727;SDS011;72459;50.110;8.750;2024-03-08T06:06:09;20.25;;;10.27;;
82727;SDS011;72459;50.110;8.750;2024-03-08T06:08:34;21.77;;;10.83;;
82727;SDS011;72459;50.110;8.750;2024-03-08T06:10:59;24.20;;;11.30;;
82727;SDS011;72459;50.110;8.750;2024-03-08T06:13:27;24.15;;;11.25;;
82727;SDS011;72459;50.110;8.750;2024-03-08T06:15:52;24.47;;;11.17;;
82727;SDS011;72459;50.110;8.750;2024-03-08T06:18:18;26.50;;;11.45;;
82727;SDS011;72459;50.110;8.750;2024-03-08T06:20:43;22.00;;;11.50;;
82727;SDS011;72459;50.110;8.750;2024-03-08T06:23:09;22.80;;;10.37;;
82727;SDS011;72459;50.110;8.750;2024-03-08T06:25:34;23.77;;;11.88;;
82727;SDS011;72459;50.110;8.750;2024-03-08T06:28:00;22.45;;;11.38;;
82727;SDS011;72459;50.110;8.750;2024-03-08T06:30:25;22.98;;;11.05;;
82727;SDS011;72459;50.110;8.750;2024-03-08T06:32:51;24.65;;;10.98;;
82727;SDS011;72459;50.110;8.750;2024-03-08T06:35:16;22.63;;;11.43;;
82727;SDS011;72459;50.110;8.750;2024-03-08T06:37:42;23.30;;;11.27;;
82727;SDS011;72459;50.110;8.750;2024-03-08T06:40:09;21.17;;;10.73;;
82727;SDS011;72459;50.110;8.750;2024-03-08T06:42:38;23.63;;;11.15;;
82727;SDS011;72459;50.110;8.750;2024-03-08T06:45:04;23.48;;;11.05;;
82727;SDS011;72459;50.110;8.750;2024-03-08T06:47:30;25.83;;;11.30;;
82727;SDS011;72459;50.110;8.750;2024-03-08T06:49:56;21.52;;;9.95;;
82727;SDS011;72459;50.110;8.750;2024-03-08T06:52:22;22.15;;;10.48;;
82727;SDS011;72459;50.110;8.750;2024-03-08T06:54:47;18.40;;;9.13;;
82727;SDS011;72459;50.110;8.750;2024-03-08T06:57:14;21.67;;;10.15;;
82727;SDS011;72459;50.110;8.750;2024-03-08T06:59:39;22.88;;;11.35;;
82727;SDS011;72459;50.110;8.750;2024-03-08T07:02:05;22.48;;;11.57;;
82727;SDS011;72459;50.110;8.750;2024-03-08T07:04:33;22.05;;;9.60;;
82727;SDS011;72459;50.110;8.750;2024-03-08T07:07:02;25.63;;;11.93;;
82727;SDS011;72459;50.110;8.750;2024-03-08T07:09:34;23.23;;;10.98;;
82727;SDS011;72459;50.110;8.750;2024-03-08T07:12:03;19.85;;;9.68;;
82727;SDS011;72459;50.110;8.750;2024-03-08T07:14:29;23.77;;;12.25;;
82727;SDS011;72459;50.110;8.750;2024-03-08T07:16:55;23.65;;;10.13;;
82727;SDS011;72459;50.110;8.750;2024-03-08T07:19:22;26.77;;;11.63;;
82727;SDS011;72459;50.110;8.750;2024-03-08T07:21:48;19.58;;;8.95;;
82727;SDS011;72459;50.110;8.750;2024-03-08T07:24:14;24.38;;;12.13;;
82727;SDS011;72459;50.110;8.750;2024-03-08T07:26:45;26.88;;;12.23;;
82727;SDS011;72459;50.110;8.750;2024-03-08T07:29:15;26.50;;;11.75;;
82727;SDS011;72459;50.110;8.750;2024-03-08T07:31:41;24.67;;;11.70;;
82727;SDS011;72459;50.110;8.750;2024-03-08T07:34:06;17.97;;;8.93;;
82727;SDS011;72459;50.110;8.750;2024-03-08T07:36:32;18.67;;;9.50;;
82727;SDS011;72459;50.110;8.750;2024-03-08T07:39:01;21.92;;;11.27;;
82727;SDS011;72459;50.110;8.750;2024-03-08T07:41:26;16.13;;;8.82;;
82727;SDS011;72459;50.110;8.750;2024-03-08T07:43:53;22.40;;;10.65;;
82727;SDS011;72459;50.110;8.750;2024-03-08T07:46:19;19.85;;;9.70;;
82727;SDS011;72459;50.110;8.750;2024-03-08T07:48:44;24.50;;;10.70;;
82727;SDS011;72459;50.110;8.750;2024-03-08T07:51:11;21.02;;;10.35;;
82727;SDS011;72459;50.110;8.750;2024-03-08T07:53:37;20.70;;;10.30;;
82727;SDS011;72459;50.110;8.750;2024-03-08T07:56:03;23.60;;;10.77;;
82727;SDS011;72459;50.110;8.750;2024-03-08T07:58:30;22.65;;;10.90;;
82727;SDS011;72459;50.110;8.750;2024-03-08T08:00:55;24.77;;;11.30;;
82727;SDS011;72459;50.110;8.750;2024-03-08T08:03:20;21.20;;;10.43;;
82727;SDS011;72459;50.110;8.750;2024-03-08T08:05:46;21.30;;;11.17;;
82727;SDS011;72459;50.110;8.750;2024-03-08T08:08:11;18.08;;;9.32;;
82727;SDS011;72459;50.110;8.750;2024-03-08T08:10:37;19.58;;;9.77;;
82727;SDS011;72459;50.110;8.750;2024-03-08T08:13:02;22.83;;;11.13;;
82727;SDS011;72459;50.110;8.750;2024-03-08T08:15:31;16.58;;;7.25;;
82727;SDS011;72459;50.110;8.750;2024-03-08T08:17:59;23.50;;;10.52;;
82727;SDS011;72459;50.110;8.750;2024-03-08T08:20:25;26.38;;;12.10;;
82727;SDS011;72459;50.110;8.750;2024-03-08T08:22:51;20.10;;;10.70;;
82727;SDS011;72459;50.110;8.750;2024-03-08T08:25:16;25.58;;;11.57;;
82727;SDS011;72459;50.110;8.750;2024-03-08T08:27:45;22.35;;;10.43;;
82727;SDS011;72459;50.110;8.750;2024-03-08T08:30:11;21.58;;;12.18;;
82727;SDS011;72459;50.110;8.750;2024-03-08T08:32:38;22.05;;;9.50;;
82727;SDS011;72459;50.110;8.750;2024-03-08T08:35:04;20.83;;;9.25;;
82727;SDS011;72459;50.110;8.750;2024-03-08T08:37:31;21.38;;;10.63;;
82727;SDS011;72459;50.110;8.750;2024-03-08T08:39:58;20.77;;;10.13;;
82727;SDS011;72459;50.110;8.750;2024-03-08T08:42:30;21.17;;;10.82;;
82727;SDS011;72459;50.110;8.750;2024-03-08T08:44:55;22.57;;;10.97;;
82727;SDS011;72459;50.110;8.750;2024-03-08T08:47:22;22.13;;;10.82;;
82727;SDS011;72459;50.110;8.750;2024-03-08T08:49:48;20.58;;;10.45;;
82727;SDS011;72459;50.110;8.750;2024-03-08T08:52:15;18.63;;;9.40;;
82727;SDS011;72459;50.110;8.750;2024-03-08T08:54:41;17.48;;;8.85;;
82727;SDS011;72459;50.110;8.750;2024-03-08T08:57:07;21.67;;;10.18;;
82727;SDS011;72459;50.110;8.750;2024-03-08T08:59:34;20.52;;;9.95;;
82727;SDS011;72459;50.110;8.750;2024-03-08T09:02:04;23.08;;;10.82;;
82727;SDS011;72459;50.110;8.750;2024-03-08T09:04:31;20.40;;;9.82;;
82727;SDS011;72459;50.110;8.750;2024-03-08T09:06:57;14.27;;;7.07;;
82727;SDS011;72459;50.110;8.750;2024-03-08T09:09:22;18.90;;;9.05;;
82727;SDS011;72459;50.110;8.750;2024-03-08T09:11:48;15.13;;;7.65;;
82727;SDS011;72459;50.110;8.750;2024-03-08T09:14:14;18.10;;;9.35;;
82727;SDS011;72459;50.110;8.750;2024-03-08T09:16:40;14.98;;;6.60;;
82727;SDS011;72459;50.110;8.750;2024-03-08T09:19:06;17.70;;;9.60;;
82727;SDS011;72459;50.110;8.750;2024-03-08T09:21:32;15.70;;;7.63;;
82727;SDS011;72459;50.110;8.750;2024-03-08T09:23:57;15.43;;;8.30;;
82727;SDS011;72459;50.110;8.750;2024-03-08T09:26:23;15.88;;;7.82;;
82727;SDS011;72459;50.110;8.750;2024-03-08T09:28:49;12.23;;;6.55;;
82727;SDS011;72459;50.110;8.750;2024-03-08T09:31:14;17.70;;;8.93;;
82727;SDS011;72459;50.110;8.750;2024-03-08T09:33:40;15.80;;;8.05;;
82727;SDS011;72459;50.110;8.750;2024-03-08T09:36:07;17.33;;;8.13;;
82727;SDS011;72459;50.110;8.750;2024-03-08T09:38:32;15.52;;;8.27;;
82727;SDS011;72459;50.110;8.750;2024-03-08T09:40:59;17.17;;;8.35;;
82727;SDS011;72459;50.110;8.750;2024-03-08T09:43:26;17.88;;;8.15;;
82727;SDS011;72459;50.110;8.750;2024-03-08T09:45:53;18.10;;;9.65;;
82727;SDS011;72459;50.110;8.750;2024-03-08T09:48:20;15.43;;;8.40;;
82727;SDS011;72459;50.110;8.750;2024-03-08T09:50:47;8.50;;;4.00;;
82727;SDS011;72459;50.110;8.750;2024-03-08T09:53:13;15.35;;;7.55;;
82727;SDS011;72459;50.110;8.750;2024-03-08T09:55:38;13.68;;;7.00;;
82727;SDS011;72459;50.110;8.750;2024-03-08T09:58:10;16.83;;;9.13;;
82727;SDS011;72459;50.110;8.750;2024-03-08T10:00:55;16.50;;;9.00;;
82727;SDS011;72459;50.110;8.750;2024-03-08T10:03:22;13.38;;;6.72;;
82727;SDS011;72459;50.110;8.750;2024-03-08T10:05:51;12.02;;;6.60;;
82727;SDS011;72459;50.110;8.750;2024-03-08T10:08:16;11.57;;;6.35;;
82727;SDS011;72459;50.110;8.750;2024-03-08T10:10:42;14.38;;;8.40;;
82727;SDS011;72459;50.110;8.750;2024-03-08T10:13:08;15.68;;;8.68;;
82727;SDS011;72459;50.110;8.750;2024-03-08T10:15:35;16.35;;;8.77;;
82727;SDS011;72459;50.110;8.750;2024-03-08T10:18:01;15.05;;;7.78;;
82727;SDS011;72459;50.110;8.750;2024-03-08T10:20:33;12.27;;;6.18;;
82727;SDS011;72459;50.110;8.750;2024-03-08T10:22:59;12.38;;;6.38;;
82727;SDS011;72459;50.110;8.750;2024-03-08T10:25:30;15.00;;;8.18;;
82727;SDS011;72459;50.110;8.750;2024-03-08T10:27:59;12.98;;;6.65;;
82727;SDS011;72459;50.110;8.750;2024-03-08T10:30:25;15.60;;;8.32;;
82727;SDS011;72459;50.110;8.750;2024-03-08T10:32:50;15.10;;;8.07;;
82727;SDS011;72459;50.110;8.750;2024-03-08T10:35:16;14.07;;;8.50;;
82727;SDS011;72459;50.110;8.750;2024-03-08T10:37:49;16.98;;;9.38;;
82727;SDS011;72459;50.110;8.750;2024-03-08T10:40:26;13.68;;;7.40;;
82727;SDS011;72459;50.110;8.750;2024-03-08T10:45:23;15.07;;;8.32;;
82727;SDS011;72459;50.110;8.750;2024-03-08T10:47:55;14.75;;;7.80;;
82727;SDS011;72459;50.110;8.750;2024-03-08T10:50:47;15.05;;;8.40;;
82727;SDS011;72459;50.110;8.750;2024-03-08T10:53:15;13.73;;;7.40;;
82727;SDS011;72459;50.110;8.750;2024-03-08T10:55:43;13.88;;;7.47;;
82727;SDS011;72459;50.110;8.750;2024-03-08T10:58:09;13.52;;;5.97;;
82727;SDS011;72459;50.110;8.750;2024-03-08T11:00:37;14.25;;;7.40;;
82727;SDS011;72459;50.110;8.750;2024-03-08T11:03:03;15.50;;;7.95;;
82727;SDS011;72459;50.110;8.750;2024-03-08T11:05:35;15.80;;;7.88;;
82727;SDS011;72459;50.110;8.750;2024-03-08T11:08:05;13.57;;;7.20;;
82727;SDS011;72459;50.110;8.750;2024-03-08T11:10:51;14.23;;;7.47;;
82727;SDS011;72459;50.110;8.750;2024-03-08T11:16:00;14.80;;;7.50;;
82727;SDS011;72459;50.110;8.750;2024-03-08T11:18:26;13.45;;;7.38;;
82727;SDS011;72459;50.110;8.750;2024-03-08T11:20:54;12.43;;;6.30;;
82727;SDS011;72459;50.110;8.750;2024-03-08T11:23:22;12.65;;;6.40;;
82727;SDS011;72459;50.110;8.750;2024-03-08T11:25:48;15.45;;;7.40;;
82727;SDS011;72459;50.110;8.750;2024-03-08T11:28:18;11.15;;;5.75;;
82727;SDS011;72459;50.110;8.750;2024-03-08T11:33:15;12.95;;;6.32;;
82727;SDS011;72459;50.110;8.750;2024-03-08T11:35:41;12.05;;;6.53;;
82727;SDS011;72459;50.110;8.750;2024-03-08T11:38:10;14.45;;;7.15;;
82727;SDS011;72459;50.110;8.750;2024-03-08T11:40:36;15.18;;;8.02;;
82727;SDS011;72459;50.110;8.750;2024-03-08T11:43:02;14.02;;;7.10;;
82727;SDS011;72459;50.110;8.750;2024-03-08T11:45:32;13.55;;;7.13;;
82727;SDS011;72459;50.110;8.750;2024-03-08T11:48:01;12.65;;;6.05;;
82727;SDS011;72459;50.110;8.750;2024-03-08T11:50:30;12.60;;;6.47;;
82727;SDS011;72459;50.110;8.750;2024-03-08T11:53:03;15.05;;;7.47;;
82727;SDS011;72459;50.110;8.750;2024-03-08T11:55:29;13.75;;;7.57;;
82727;SDS011;72459;50.110;8.750;2024-03-08T11:58:03;11.45;;;5.85;;
82727;SDS011;72459;50.110;8.750;2024-03-08T12:00:33;15.05;;;8.00;;
82727;SDS011;72459;50.110;8.750;2024-03-08T12:03:06;13.32;;;7.03;;
82727;SDS011;72459;50.110;8.750;2024-03-08T12:05:34;11.95;;;6.97;;
82727;SDS011;72459;50.110;8.750;2024-03-08T12:08:00;13.88;;;7.82;;
82727;SDS011;72459;50.110;8.750;2024-03-08T12:10:26;14.40;;;7.85;;
82727;SDS011;72459;50.110;8.750;2024-03-08T12:12:53;12.10;;;6.78;;
82727;SDS011;72459;50.110;8.750;2024-03-08T12:15:20;17.27;;;7.80;;
82727;SDS011;72459;50.110;8.750;2024-03-08T12:17:48;11.68;;;6.95;;
82727;SDS011;72459;50.110;8.750;2024-03-08T12:20:21;13.70;;;6.30;;
82727;SDS011;72459;50.110;8.750;2024-03-08T12:22:49;12.75;;;6.85;;
82727;SDS011;72459;50.110;8.750;2024-03-08T12:25:19;14.07;;;7.18;;
82727;SDS011;72459;50.110;8.750;2024-03-08T12:27:45;13.27;;;6.85;;
82727;SDS011;72459;50.110;8.750;2024-03-08T12:30:24;13.43;;;7.15;;
82727;SDS011;72459;50.110;8.750;2024-03-08T12:32:54;10.88;;;5.97;;
82727;SDS011;72459;50.110;8.750;2024-03-08T12:35:25;13.95;;;7.97;;
82727;SDS011;72459;50.110;8.750;2024-03-08T12:37:52;14.35;;;7.75;;
82727;SDS011;72459;50.110;8.750;2024-03-08T12:40:26;16.60;;;8.02;;
82727;SDS011;72459;50.110;8.750;2024-03-08T12:42:55;16.40;;;8.10;;
82727;SDS011;72459;50.110;8.750;2024-03-08T12:45:21;15.43;;;8.55;;
82727;SDS011;72459;50.110;8.750;2024-03-08T12:47:53;14.35;;;7.13;;
82727;SDS011;72459;50.110;8.750;2024-03-08T12:50:19;13.32;;;7.25;;
82727;SDS011;72459;50.110;8.750;2024-03-08T12:52:45;12.30;;;6.18;;
82727;SDS011;72459;50.110;8.750;2024-03-08T12:55:11;16.35;;;9.18;;
82727;SDS011;72459;50.110;8.750;2024-03-08T12:57:37;13.35;;;7.00;;
82727;SDS011;72459;50.110;8.750;2024-03-08T13:00:03;14.90;;;6.38;;
82727;SDS011;72459;50.110;8.750;2024-03-08T13:02:30;14.75;;;8.45;;
82727;SDS011;72459;50.110;8.750;2024-03-08T13:04:58;13.55;;;8.68;;
82727;SDS011;72459;50.110;8.750;2024-03-08T13:07:23;15.23;;;8.45;;
82727;SDS011;72459;50.110;8.750;2024-03-08T13:09:53;14.82;;;8.07;;
82727;SDS011;72459;50.110;8.750;2024-03-08T13:12:23;12.82;;;6.72;;
82727;SDS011;72459;50.110;8.750;2024-03-08T13:14:49;14.50;;;7.75;;
82727;SDS011;72459;50.110;8.750;2024-03-08T13:17:14;14.70;;;7.90;;
82727;SDS011;72459;50.110;8.750;2024-03-08T13:19:40;13.00;;;6.78;;
82727;SDS011;72459;50.110;8.750;2024-03-08T13:22:07;14.23;;;8.30;;
82727;SDS011;72459;50.110;8.750;2024-03-08T13:24:37;14.18;;;8.13;;
82727;SDS011;72459;50.110;8.750;2024-03-08T13:27:03;11.88;;;6.75;;
82727;SDS011;72459;50.110;8.750;2024-03-08T13:29:41;15.73;;;8.45;;
82727;SDS011;72459;50.110;8.750;2024-03-08T13:32:08;13.27;;;6.82;;
82727;SDS011;72459;50.110;8.750;2024-03-08T13:34:36;10.73;;;6.43;;
82727;SDS011;72459;50.110;8.750;2024-03-08T13:37:02;15.65;;;7.55;;
82727;SDS011;72459;50.110;8.750;2024-03-08T13:39:30;13.18;;;6.82;;
82727;SDS011;72459;50.110;8.750;2024-03-08T13:42:06;12.57;;;7.40;;
82727;SDS011;72459;50.110;8.750;2024-03-08T13:44:37;13.85;;;7.13;;
82727;SDS011;72459;50.110;8.750;2024-03-08T13:47:03;13.55;;;7.68;;
82727;SDS011;72459;50.110;8.750;2024-03-08T13:49:29;15.60;;;8.38;;
82727;SDS011;72459;50.110;8.750;2024-03-08T13:51:55;13.63;;;7.72;;
82727;SDS011;72459;50.110;8.750;2024-03-08T13:54:23;13.57;;;7.55;;
82727;SDS011;72459;50.110;8.750;2024-03-08T13:56:49;13.43;;;8.40;;
82727;SDS011;72459;50.110;8.750;2024-03-08T13:59:14;13.10;;;7.35;;
82727;SDS011;72459;50.110;8.750;2024-03-08T14:01:40;14.68;;;7.70;;
82727;SDS011;72459;50.110;8.750;2024-03-08T14:04:05;13.57;;;8.30;;
82727;SDS011;72459;50.110;8.750;2024-03-08T14:06:30;13.00;;;8.38;;
82727;SDS011;72459;50.110;8.750;2024-03-08T14:08:56;14.20;;;7.70;;
82727;SDS011;72459;50.110;8.750;2024-03-08T14:11:22;12.88;;;6.07;;
82727;SDS011;72459;50.110;8.750;2024-03-08T14:13:49;12.68;;;7.30;;
82727;SDS011;72459;50.110;8.750;2024-03-08T14:16:14;13.93;;;8.20;;
82727;SDS011;72459;50.110;8.750;2024-03-08T14:18:40;13.93;;;7.70;;
82727;SDS011;72459;50.110;8.750;2024-03-08T14:21:05;13.27;;;8.10;;
82727;SDS011;72459;50.110;8.750;2024-03-08T14:23:33;12.45;;;7.47;;
82727;SDS011;72459;50.110;8.750;2024-03-08T14:25:59;14.32;;;7.15;;
82727;SDS011;72459;50.110;8.750;2024-03-08T14:28:24;14.43;;;8.13;;
82727;SDS011;72459;50.110;8.750;2024-03-08T14:33:18;13.82;;;7.57;;
82727;SDS011;72459;50.110;8.750;2024-03-08T14:35:43;15.95;;;7.38;;
82727;SDS011;72459;50.110;8.750;2024-03-08T14:38:09;13.32;;;7.45;;
82727;SDS011;72459;50.110;8.750;2024-03-08T14:40:36;15.05;;;8.10;;
82727;SDS011;72459;50.110;8.750;2024-03-08T14:43:04;15.75;;;7.68;;
82727;SDS011;72459;50.110;8.750;2024-03-08T14:45:30;13.93;;;7.97;;
82727;SDS011;72459;50.110;8.750;2024-03-08T14:47:56;13.30;;;6.68;;
82727;SDS011;72459;50.110;8.750;2024-03-08T14:50:22;14.25;;;8.40;;